Time;durP1;ratioP1;P1;durP2;ratioP2;P2;SDS_P1;SDS_P2;PMS_P1;PMS_P2;Temp;Humidity;BMP_temperature;BMP_pressure;BME280_temperature;BME280_humidity;BME280_pressure;Samples;Min_cycle;Max_cycle;Signal;HPM_P1;HPM_P2
2022/05/25 00:00:08;;;;;;;21.30;16.70;;;;;;;16.11;73.35;98143.90;433883;1267;113021;-42
2022/05/25 00:10:35;;;;;;;21.00;18.60;;;;;;;16.08;73.49;98141.51;433477;1268;110662;-44
2022/05/25 00:20:42;;;;;;;21.00;18.10;;;;;;;15.88;73.50;98136.67;433754;1267;98828;-42
2022/05/25 00:30:49;;;;;;;23.70;20.10;;;;;;;15.70;73.94;98139.86;433738;1267;108679;-40
2022/05/25 00:40:59;;;;;;;23.60;19.60;;;;;;;15.62;74.09;98146.45;433764;1268;98075;-42
2022/05/25 00:51:13;;;;;;;25.30;22.20;;;;;;;15.45;74.24;98150.06;433832;1267;112426;-41
2022/05/25 01:01:21;;;;;;;23.90;21.00;;;;;;;15.20;74.29;98148.13;433763;1268;108888;-39
2022/05/25 01:11:32;;;;;;;22.10;19.80;;;;;;;14.98;74.51;98157.51;433902;1267;98029;-41
2022/05/25 01:21:45;;;;;;;21.70;19.40;;;;;;;14.90;74.90;98159.92;433514;1257;108819;-41
2022/05/25 01:31:50;;;;;;;25.00;19.40;;;;;;;14.87;75.13;98162.73;432421;1270;98927;-41
2022/05/25 01:42:02;;;;;;;28.10;19.60;;;;;;;14.91;75.30;98169.02;432380;1270;113003;-41
2022/05/25 01:52:15;;;;;;;23.80;20.80;;;;;;;14.86;75.43;98182.37;432441;1270;108532;-40
2022/05/25 02:12:53;;;;;;;25.50;19.60;;;;;;;15.20;76.02;98184.19;432442;1270;108802;-41
2022/05/25 02:23:05;;;;;;;22.80;19.60;;;;;;;15.26;76.07;98176.17;432317;1270;99359;-43
2022/05/25 02:33:15;;;;;;;23.20;20.00;;;;;;;15.24;76.20;98168.20;432504;1270;111378;-40
2022/05/25 02:43:22;;;;;;;22.30;19.90;;;;;;;15.21;76.28;98182.38;432231;1270;107787;-41
2022/05/25 02:53:30;;;;;;;22.30;19.30;;;;;;;15.23;76.51;98181.79;432461;1271;98050;-41
2022/05/25 03:03:38;;;;;;;21.30;19.10;;;;;;;15.32;76.73;98189.80;432249;1270;109040;-42
2022/05/25 03:23:53;;;;;;;19.70;17.40;;;;;;;15.34;76.92;98188.09;432521;1270;112452;-41
2022/05/25 03:34:00;;;;;;;20.90;18.10;;;;;;;15.44;76.88;98193.50;432370;1270;108847;-41
2022/05/25 03:44:08;;;;;;;20.20;16.80;;;;;;;15.40;76.96;98201.79;432318;1270;98890;-42
2022/05/25 03:54:15;;;;;;;17.40;15.60;;;;;;;15.46;77.24;98203.84;432451;1270;108867;-40
2022/05/25 04:04:23;;;;;;;18.20;16.30;;;;;;;15.62;77.42;98208.91;432459;1270;99936;-41
2022/05/25 04:14:30;;;;;;;22.60;17.80;;;;;;;15.90;77.57;98217.07;432466;1270;112898;-40
2022/05/25 04:24:38;;;;;;;22.50;18.80;;;;;;;16.05;77.50;98231.82;432321;1270;108903;-43
2022/05/25 04:34:51;;;;;;;19.40;16.30;;;;;;;16.19;77.59;98244.02;432426;1270;98081;-41
2022/05/25 04:45:00;;;;;;;18.30;16.30;;;;;;;16.28;77.54;98224.55;432506;1270;108841;-42
2022/05/25 04:57:19;;;;;;;20.70;17.20;;;;;;;16.35;77.35;98207.38;432444;1270;99374;-41
2022/05/25 05:05:38;;;;;;;19.90;16.50;;;;;;;17.13;77.54;98195.92;432502;1270;109827;-44
2022/05/25 05:15:48;;;;;;;19.50;15.80;;;;;;;18.72;76.59;98194.17;432383;1270;109298;-41
2022/05/25 05:25:56;;;;;;;17.40;15.50;;;;;;;18.97;75.83;98195.98;432589;1270;99286;-42
2022/05/25 05:36:16;;;;;;;17.90;15.50;;;;;;;17.95;75.63;98200.29;432205;1270;108661;-41
2022/05/25 05:46:24;;;;;;;15.20;13.60;;;;;;;17.47;75.77;98201.27;432481;1270;98854;-41
2022/05/25 05:56:33;;;;;;;16.70;13.60;;;;;;;17.27;76.28;98213.64;432522;1270;112447;-42
2022/05/25 06:06:42;;;;;;;16.80;14.90;;;;;;;17.05;76.59;98226.88;432370;1270;108861;-40
2022/05/25 06:27:15;;;;;;;16.70;14.40;;;;;;;16.66;76.72;98235.41;432543;1270;108915;-41
2022/05/25 06:37:26;;;;;;;16.80;15.00;;;;;;;16.46;77.00;98245.61;432217;1270;98324;-40
2022/05/25 06:47:34;;;;;;;15.00;13.40;;;;;;;16.20;77.45;98275.33;432434;1270;111359;-41
2022/05/25 06:57:42;;;;;;;17.50;15.60;;;;;;;15.94;78.01;98303.71;432655;1270;108792;-42
2022/05/25 07:07:49;;;;;;;13.00;11.80;;;;;;;15.68;78.61;98315.87;432738;1270;98011;-43
2022/05/25 07:17:57;;;;;;;14.40;11.90;;;;;;;15.33;79.24;98317.67;432462;1270;108565;-40
2022/05/25 07:28:03;;;;;;;15.10;10.20;;;;;;;15.13;79.41;98339.35;432521;1270;98835;-41
2022/05/25 07:38:09;;;;;;;17.80;13.90;;;;;;;14.94;79.85;98332.58;432588;1271;112904;-44
2022/05/25 09:28:34;;;;;;;4.70;4.20;;;;;;;13.27;81.78;98427.92;419641;1309;649235;-41
2022/05/25 09:58:59;;;;;;;5.20;3.90;;;;;;;12.84;82.20;98439.80;431527;1274;95417;-42
2022/05/25 10:09:08;;;;;;;4.90;3.70;;;;;;;12.71;82.38;98425.80;431916;1274;109468;-41
2022/05/25 10:19:18;;;;;;;4.10;3.20;;;;;;;12.83;82.60;98410.91;431898;1274;109282;-41
2022/05/25 10:39:58;;;;;;;2.60;1.90;;;;;;;13.23;82.48;98422.20;431384;1274;108828;-41
2022/05/25 10:50:14;;;;;;;7.00;2.40;;;;;;;13.32;82.41;98423.89;431360;1274;109503;-41
2022/05/25 11:00:21;;;;;;;3.80;2.20;;;;;;;13.31;82.21;98442.31;431249;1274;94913;-41
2022/05/25 11:10:42;;;;;;;5.00;2.60;;;;;;;13.29;82.07;98459.36;431450;1274;109520;-43
2022/05/25 11:20:51;;;;;;;5.10;2.70;;;;;;;13.33;82.02;98461.14;431374;1274;108516;-40
2022/05/25 11:41:09;;;;;;;5.60;2.90;;;;;;;13.52;81.99;98482.29;432551;1273;108837;-41
2022/05/25 11:51:18;;;;;;;2.60;2.00;;;;;;;13.74;81.85;98500.24;431775;1274;96122;-43
2022/05/25 12:01:24;;;;;;;4.10;2.00;;;;;;;13.79;81.64;98496.61;432466;1274;108787;-41
2022/05/25 12:11:31;;;;;;;1.80;1.40;;;;;;;14.00;81.60;98512.35;432574;1274;108783;-45
2022/05/25 12:21:42;;;;;;;5.80;3.90;;;;;;;14.20;81.42;98504.09;432319;1274;95297;-43
2022/05/25 12:31:56;;;;;;;3.10;2.10;;;;;;;14.13;80.99;98489.78;432555;1273;108704;-43
2022/05/25 12:42:22;;;;;;;1.50;1.30;;;;;;;14.19;80.81;98497.60;432436;1273;109043;-42
2022/05/25 12:52:43;;;;;;;4.00;2.20;;;;;;;14.29;80.66;98519.15;432325;1272;96159;-41
2022/05/25 13:13:19;;;;;;;3.60;2.20;;;;;;;14.54;80.28;98534.45;432673;1274;95319;-42
2022/05/25 13:24:01;;;;;;;12.90;7.00;;;;;;;14.51;79.96;98527.09;432494;1274;96161;-42
2022/05/25 13:34:09;;;;;;;2.10;1.90;;;;;;;14.92;79.57;98527.50;432548;1273;109976;-41
2022/05/25 13:44:21;;;;;;;2.80;2.50;;;;;;;15.35;78.97;98516.41;431644;1274;107862;-42
2022/05/25 13:54:34;;;;;;;2.80;2.40;;;;;;;15.51;78.53;98514.99;432526;1273;96417;-41
2022/05/25 14:04:51;;;;;;;9.30;4.00;;;;;;;15.40;77.86;98524.30;432555;1274;109786;-43
2022/05/25 14:14:57;;;;;;;;;;;;;;;15.09;77.60;98526.39;432423;1273;108894;-40
2022/05/25 14:25:11;;;;;;;5.70;1.50;;;;;;;15.00;77.35;98511.29;432381;1273;96179;-43
2022/05/25 14:35:20;;;;;;;2.90;2.30;;;;;;;14.82;77.43;98518.30;432630;1274;108365;-40
2022/05/25 14:45:29;;;;;;;3.90;2.80;;;;;;;14.89;77.53;98541.44;432498;1274;108043;-41
2022/05/25 15:26:12;;;;;;;4.10;3.00;;;;;;;15.21;77.40;98557.61;432474;1274;95327;-41
2022/05/25 15:36:22;;;;;;;4.80;3.20;;;;;;;15.14;77.54;98571.38;432428;1273;95582;-41
2022/05/25 15:46:42;;;;;;;5.10;3.40;;;;;;;15.00;77.40;98580.15;432329;1273;108817;-41
2022/05/25 15:56:51;;;;;;;5.30;4.30;;;;;;;15.04;77.64;98577.61;432284;1274;96101;-41
2022/05/25 16:07:00;;;;;;;9.30;3.60;;;;;;;15.13;77.79;98584.84;432432;1273;109648;-40
2022/05/25 16:17:04;;;;;;;;;;;;;;;15.12;77.61;98592.82;432382;1273;108813;-41
2022/05/25 16:27:12;;;;;;;5.70;4.30;;;;;;;15.12;77.85;98583.92;432533;1273;95269;-39
2022/05/25 16:47:26;;;;;;;3.80;3.30;;;;;;;15.33;77.70;98576.92;432607;1274;108783;-40
2022/05/25 16:57:34;;;;;;;3.80;3.40;;;;;;;15.46;77.54;98584.91;432617;1273;96617;-42
2022/05/25 17:07:42;;;;;;;5.80;4.40;;;;;;;15.31;77.47;98595.14;432478;1274;108574;-41
2022/05/25 17:17:49;;;;;;;3.70;3.10;;;;;;;15.14;77.50;98589.20;432329;1274;109041;-40
2022/05/25 17:27:56;;;;;;;7.40;5.60;;;;;;;15.13;77.38;98602.47;432432;1274;96156;-40
2022/05/25 17:48:30;;;;;;;14.20;9.10;;;;;;;14.96;77.41;98599.77;432309;1274;96210;-39
2022/05/25 17:58:38;;;;;;;6.90;5.20;;;;;;;14.82;77.64;98609.92;432313;1273;109660;-41
2022/05/25 18:08:46;;;;;;;7.80;4.90;;;;;;;14.76;77.78;98617.50;432406;1273;108932;-43
2022/05/25 18:18:53;;;;;;;6.40;4.70;;;;;;;14.71;77.78;98614.23;432608;1273;96156;-41
2022/05/25 18:29:01;;;;;;;7.70;5.70;;;;;;;14.68;77.67;98610.65;432362;1273;110160;-44
2022/05/25 18:39:10;;;;;;;7.90;5.40;;;;;;;14.68;77.63;98611.98;432452;1273;109055;-40
2022/05/25 18:49:18;;;;;;;8.80;5.80;;;;;;;14.63;77.49;98626.09;432740;1272;96649;-40
2022/05/25 18:59:25;;;;;;;10.00;7.30;;;;;;;14.59;77.60;98630.37;432550;1273;107821;-42
2022/05/25 19:09:33;;;;;;;13.70;9.40;;;;;;;14.51;77.64;98632.02;432426;1273;96159;-40
2022/05/25 19:19:43;;;;;;;14.20;9.70;;;;;;;14.33;77.56;98635.89;432711;1273;95606;-39
2022/05/25 19:29:50;;;;;;;13.90;9.50;;;;;;;14.07;77.34;98647.46;432636;1273;109810;-40
2022/05/25 19:40:01;;;;;;;15.10;10.50;;;;;;;13.95;77.50;98649.42;432396;1274;108894;-40
2022/05/25 20:00:35;;;;;;;14.50;12.00;;;;;;;13.58;77.60;98661.92;432508;1273;108706;-40
2022/05/25 20:10:43;;;;;;;16.30;13.00;;;;;;;13.28;77.74;98657.05;432641;1274;96130;-41
2022/05/25 20:20:49;;;;;;;15.90;12.10;;;;;;;13.10;77.97;98658.34;433620;1269;95654;-43
2022/05/25 20:30:56;;;;;;;16.80;12.60;;;;;;;13.06;78.11;98664.02;433785;1268;108846;-41
2022/05/25 20:41:03;;;;;;;14.60;12.00;;;;;;;12.93;78.18;98667.20;433557;1269;96126;-41
2022/05/25 20:51:10;;;;;;;15.00;12.20;;;;;;;12.88;78.37;98672.98;433755;1268;109511;-42
2022/05/25 21:01:18;;;;;;;16.60;12.40;;;;;;;12.83;78.49;98679.19;433429;1269;108902;-41
2022/05/25 21:11:26;;;;;;;20.30;15.00;;;;;;;12.73;78.53;98688.84;433646;1270;96865;-42
2022/05/25 21:21:32;;;;;;;17.40;14.50;;;;;;;12.71;78.77;98695.17;433573;1270;108781;-41
2022/05/25 21:42:03;;;;;;;17.90;13.70;;;;;;;12.73;78.91;98690.64;433904;1268;109580;-41
2022/05/25 21:52:10;;;;;;;17.30;14.80;;;;;;;12.64;78.83;98679.84;433429;1270;108784;-43
2022/05/25 22:02:18;;;;;;;20.80;15.90;;;;;;;12.52;78.95;98682.82;433392;1271;96193;-41
2022/05/25 22:12:24;;;;;;;22.70;16.80;;;;;;;12.43;79.00;98681.78;433779;1268;107676;-41
2022/05/25 22:22:32;;;;;;;19.30;14.60;;;;;;;12.33;79.08;98683.45;433587;1270;108708;-41
2022/05/25 22:32:40;;;;;;;18.30;14.50;;;;;;;12.19;79.14;98681.59;433544;1270;96268;-40
2022/05/25 22:42:47;;;;;;;15.20;13.60;;;;;;;12.13;79.40;98685.19;433390;1269;108746;-41
2022/05/25 22:52:55;;;;;;;16.90;13.00;;;;;;;12.17;79.53;98690.73;433634;1269;95447;-41
2022/05/25 23:03:02;;;;;;;14.30;11.20;;;;;;;12.18;79.37;98691.65;433533;1271;109700;-41
2022/05/25 23:13:10;;;;;;;13.20;10.50;;;;;;;12.19;79.54;98689.05;433474;1269;108926;-40
2022/05/25 23:23:17;;;;;;;10.90;9.70;;;;;;;12.17;79.47;98685.64;433538;1271;96133;-39
2022/05/25 23:33:24;;;;;;;12.30;10.20;;;;;;;12.12;79.57;98679.19;433672;1268;108850;-45
2022/05/25 23:53:55;;;;;;;13.30;10.40;;;;;;;11.92;79.51;98673.79;433602;1268;107737;-40
